• Join FlightAware (Why Join?)
  • Login
  • US Flag 
10:12PM EDT


 

Airport Tracker/Info


-or-


 

Live Flight TrackerFlight Track Log ✈ ASQ5678 ✈ 22-Jun-2014 ✈ KEWR - KCVG

Flight Track Log - Related Links

Times and Time Zones

All times are in EDT time to prevent confusion due to time zone crossing. See the ASQ5678 flight status page for this flight to view local times or setup timezone preferences in your user account.

Time Position Orientation Groundspeed Altitude Reporting Facility
EDT Latitude Longitude Course Direction KTS MPH feet Rate Location/Type
08:41AM 40.7167 -74.1500 270° West 156 180 1,100  Level New York TRACON
08:42AM 40.7500 -74.1500 360° North 186 214 2,500 1,800 Climbing New York TRACON
08:43AM 40.7500 -74.2333 270° West 222 255 4,600 2,160 Climbing New York TRACON
08:44AM 40.7333 -74.3167 255° West 236 272 6,900 2,040 Climbing New York TRACON
08:45AM 40.6834 -74.7722 270° West  Level FlightAware Approximate
08:45AM 40.7333 -74.4000 270° West 262 302 8,700  Level New York TRACON
08:46AM 40.6833 -74.9236 270° West  Level FlightAware Approximate
08:46AM 40.7211 -74.5114 262° West 269 310 10,800  Level New York Center
08:47AM 40.7153 -74.6286 266° West 292 336 11,700 1,080 Climbing New York Center
08:48AM 40.7069 -74.7514 265° West 329 379 13,000 1,320 Climbing New York Center
08:49AM 40.6986 -74.8769 265° West 334 384 14,400 1,380 Climbing New York Center
08:50AM 40.6900 -74.9994 265° West 334 384 15,800 1,320 Climbing New York Center
08:51AM 40.6692 -75.1158 257° West 339 390 17,100 1,140 Climbing New York Center
08:52AM 40.6217 -75.2139 237° Southwest 339 390 18,100 960 Climbing New York Center
08:53AM 40.5669 -75.3361 240° Southwest 355 409 19,100 1,020 Climbing New York Center
08:54AM 40.5147 -75.4475 238° Southwest 355 409 20,200 1,020 Climbing New York Center
08:55AM 40.4667 -75.5533 239° Southwest 362 417 21,200 1,080 Climbing New York Center
08:56AM 40.4164 -75.6669 240° Southwest 372 428 22,400 1,200 Climbing New York Center
08:57AM 40.3636 -75.7775 238° Southwest 372 428 23,600 1,200 Climbing New York Center
08:58AM 40.3150 -75.8911 241° Southwest 372 428 24,800 1,140 Climbing New York Center
08:59AM 40.2844 -76.0169 252° West 367 422 25,900 1,140 Climbing New York Center
09:00AM 40.2644 -76.1378 258° West 350 403 27,100 1,140 Climbing New York Center
09:01AM 40.2342 -76.2522 251° West 350 403 28,200 1,020 Climbing New York Center
09:02AM 40.1933 -76.3686 245° Southwest 344 396 29,200 1,020 Climbing New York Center
09:03AM 40.1547 -76.4769 245° Southwest 344 396 30,300 2,460 Climbing New York Center
09:05AM 40.0836 -76.6842 246° West 346 398 36,000 1,020 Climbing Washington Center
09:06AM 40.0450 -76.7975 246° West 346 398 33,100 -1,020 Descending Washington Center
09:07AM 40.0044 -76.9078 244° Southwest 346 398 34,100 1,140 Climbing Washington Center
09:08AM 39.9656 -77.0181 245° Southwest 340 391 35,500 900 Climbing Washington Center
09:09AM 39.9289 -77.1283 247° West 335 386 36,000 240 Climbing Washington Center
09:10AM 39.8878 -77.2408 245° Southwest 340 391 36,000  Level Washington Center
09:11AM 39.8467 -77.3617 246° West 348 400 36,000  Level Washington Center
09:12AM 39.8008 -77.4847 244° Southwest 366 421 36,000  Level Washington Center
09:13AM 39.7572 -77.6131 246° West 383 441 36,000  Level Washington Center
09:14AM 39.7111 -77.7439 245° Southwest 388 447 36,000  Level Washington Center
09:15AM 39.6650 -77.8694 245° Southwest 393 452 36,000  Level Washington Center
09:16AM 39.6189 -77.9972 245° Southwest 393 452 36,000  Level Washington Center
09:17AM 39.5725 -78.1250 245° Southwest 393 452 36,000  Level Washington Center
09:18AM 39.5258 -78.2550 245° Southwest 393 452 36,000  Level Washington Center
09:19AM 39.4792 -78.3825 245° Southwest 398 458 36,000  Level Washington Center
09:20AM 39.4325 -78.5069 244° Southwest 398 458 36,000  Level Washington Center
09:21AM 39.3856 -78.6367 245° Southwest 398 458 36,000 -240 Level Washington Center
09:22AM 39.3364 -78.7608 243° Southwest 398 458 35,600 -540 Descending Washington Center
09:23AM 39.2914 -78.8928 246° West 398 458 35,000 -300 Descending Washington Center
09:24AM 39.2419 -79.0192 243° Southwest 398 458 35,000  Level Washington Center
09:25AM 39.1922 -79.1481 244° Southwest 398 458 35,000  Level Washington Center
09:26AM 39.1514 -79.2639 246° West 398 458 35,000  Level Washington Center
09:27AM 39.1036 -79.3925 244° Southwest 398 458 35,000  Level Washington Center
09:28AM 39.0558 -79.5183 244° Southwest 398 458 35,000  Level Washington Center
09:29AM 39.0056 -79.6492 244° Southwest 404 465 35,000  Level Washington Center
09:30AM 38.9572 -79.7775 244° Southwest 404 465 35,000  Level Washington Center
09:31AM 38.9044 -79.9158 244° Southwest 404 465 35,000  Level Washington Center
09:32AM 38.8275 -80.0978 242° Southwest 397 457 35,000  Level Indianapolis Center
09:33AM 38.8147 -80.2353 263° West 387 445 35,000  Level Indianapolis Center
09:34AM 38.8103 -80.3758 268° West 390 449 35,000  Level Indianapolis Center
09:35AM 38.8075 -80.5175 269° West 392 451 35,000  Level Indianapolis Center
09:36AM 38.8022 -80.6600 267° West 396 456 35,000  Level Indianapolis Center
09:38AM 38.7983 -80.8017 268° West 396 456 35,000  Level Indianapolis Center
09:39AM 38.7939 -80.9453 268° West 398 458 35,000  Level Indianapolis Center
09:40AM 38.7886 -81.1169 268° West 399 459 35,000 -300 Level Indianapolis Center
09:41AM 38.7844 -81.2617 268° West 406 467 34,500 -780 Descending Indianapolis Center
09:42AM 38.7797 -81.4044 268° West 406 467 33,500 -1,080 Descending Indianapolis Center
09:43AM 38.7736 -81.5664 267° West 406 467 32,300 -1,140 Descending Indianapolis Center
09:44AM 38.7681 -81.7200 267° West 411 473 31,200 -1,020 Descending Indianapolis Center
09:45AM 38.7617 -81.8653 267° West 412 474 30,200 -1,080 Descending Indianapolis Center
09:46AM 38.7542 -82.0125 266° West 413 475 29,100 -1,020 Descending Indianapolis Center
09:47AM 38.7194 -82.1606 253° West 431 496 28,100 -1,020 Descending Indianapolis Center
09:48AM 38.6803 -82.3078 251° West 434 499 27,000 -1,080 Descending Indianapolis Center
09:49AM 38.6394 -82.4586 251° West 444 511 25,900 -1,080 Descending Indianapolis Center
09:50AM 38.5933 -82.6303 251° West 444 511 24,800 -1,080 Descending Indianapolis Center
09:51AM 38.5544 -82.7736 251° West 433 498 23,700 -1,080 Descending Indianapolis Center
09:52AM 38.5172 -82.9131 251° West 421 484 22,600 -840 Descending Indianapolis Center
09:53AM 38.4786 -83.0525 251° West 421 484 22,000 -300 Descending Indianapolis Center
09:54AM 38.4758 -83.2158 269° West 407 468 22,000 -1,080 Level Indianapolis Center
09:55AM 38.5017 -83.3550 283° West 407 468 19,800 -2,520 Descending Indianapolis Center
09:56AM 38.5289 -83.4886 285° West 397 457 16,800 -2,880 Descending Indianapolis Center
09:57AM 38.5550 -83.6197 284° West 390 449 13,900 -2,520 Descending Indianapolis Center
09:58AM 38.5786 -83.7422 284° West 369 425 11,700 -1,860 Descending Indianapolis Center
09:59AM 38.6042 -83.8781 284° West 348 400 10,100 -840 Descending Indianapolis Center
10:00AM 38.6550 -83.9692 306° West 337 388 10,000 -60 Descending Indianapolis Center
10:01AM 38.7236 -84.0517 317° Northwest 338 389 10,000  Level Indianapolis Center
10:02AM 38.7900 -84.1328 316° Northwest 335 386 10,000 -60 Level Indianapolis Center
10:03AM 38.8533 -84.2100 316° Northwest 329 379 9,900 -720 Descending Indianapolis Center
10:04AM 38.9036 -84.2689 318° Northwest 291 335 8,600 -1,320 Descending Indianapolis Center
10:05AM 38.9497 -84.3233 317° Northwest 246 283 7,200 -1,140 Descending Indianapolis Center
10:06AM 39.0111 -84.3972 317° Northwest 246 283 6,300 -960 Descending Indianapolis Center
10:07AM 39.0647 -84.4628 316° Northwest 260 299 5,300 -720 Descending Indianapolis Center
10:08AM 39.1161 -84.5261 316° Northwest 258 297 4,900 -900 Descending Indianapolis Center
10:10AM 39.1569 -84.5797 314° West 227 261 3,500 -1,140 Descending Indianapolis Center
10:11AM 39.1000 -84.6500 224° Southwest 115 132 1,600 -1,020 Descending Cincinnati TRACON